Time;durP1;ratioP1;P1;durP2;ratioP2;P2;SDS_P1;SDS_P2;PMS_P1;PMS_P2;Temp;Humidity;BMP_temperature;BMP_pressure;BME280_temperature;BME280_humidity;BME280_pressure;Samples;Min_cycle;Max_cycle;Signal;HPM_P1;HPM_P2
2023/01/28 00:05:31;;;;;;;3.15;1.20;;;;;;;;;;21000401;28;20519;-60
2023/01/28 00:15:56;;;;;;;3.72;1.95;;;;;;;;;;20999003;28;20059;-58
2023/01/28 00:26:18;;;;;;;2.33;1.33;;;;;;;;;;21000520;28;20048;-57
2023/01/28 00:36:23;;;;;;;2.88;1.20;;;;;;;;;;20998601;28;20098;-56
2023/01/28 00:46:26;;;;;;;2.65;1.27;;;;;;;;;;20996992;28;20053;-56
2023/01/28 00:56:29;;;;;;;5.85;1.50;;;;;;;;;;20997568;28;20210;-56
2023/01/28 01:06:34;;;;;;;2.60;1.20;;;;;;;;;;20996661;28;20545;-58
2023/01/28 01:16:37;;;;;;;2.70;1.05;;;;;;;;;;20996959;28;20471;-57
2023/01/28 01:26:40;;;;;;;2.88;1.30;;;;;;;;;;20996596;28;20119;-56
2023/01/28 01:36:45;;;;;;;1.87;1.10;;;;;;;;;;20994822;28;20051;-56
2023/01/28 01:46:56;;;;;;;1.63;1.00;;;;;;;;;;20994353;28;20509;-58
2023/01/28 01:57:02;;;;;;;2.47;1.00;;;;;;;;;;20994907;28;20110;-54
2023/01/28 02:07:08;;;;;;;2.87;1.20;;;;;;;;;;20994544;28;20052;-55
2023/01/28 02:17:11;;;;;;;3.22;1.42;;;;;;;;;;20999786;28;20052;-56
2023/01/28 02:27:17;;;;;;;;;;;;;;;;;;21008944;28;20051;-56
2023/01/28 02:37:22;;;;;;;2.67;1.20;;;;;;;;;;21006119;28;19928;-56
2023/01/28 02:58:05;;;;;;;4.03;1.20;;;;;;;;;;21006175;28;20051;-57
2023/01/28 03:39:49;;;;;;;3.38;1.52;;;;;;;;;;21001102;28;20052;-56
2023/01/28 03:50:01;;;;;;;3.40;1.30;;;;;;;;;;20999990;28;20494;-56
2023/01/28 04:00:16;;;;;;;2.60;1.20;;;;;;;;;;21000979;28;20101;-54
2023/01/28 04:10:21;;;;;;;1.35;0.93;;;;;;;;;;20999806;28;20052;-55
2023/01/28 04:20:23;;;;;;;3.28;1.15;;;;;;;;;;21000189;28;20129;-55
2023/01/28 04:30:27;;;;;;;2.50;1.33;;;;;;;;;;20996935;28;20052;-55
2023/01/28 04:40:29;;;;;;;6.30;1.90;;;;;;;;;;20996284;28;20055;-55
2023/01/28 04:50:44;;;;;;;4.65;2.10;;;;;;;;;;20995869;28;20110;-55
2023/01/28 05:00:53;;;;;;;2.60;1.63;;;;;;;;;;20995873;28;20083;-56
2023/01/28 05:10:56;;;;;;;2.40;1.00;;;;;;;;;;20997065;28;20048;-57
2023/01/28 05:20:59;;;;;;;3.00;1.30;;;;;;;;;;20978989;28;20055;-55
2023/01/28 05:31:04;;;;;;;3.97;1.92;;;;;;;;;;20996027;28;20464;-54
2023/01/28 05:41:09;;;;;;;4.05;1.80;;;;;;;;;;20997279;28;20049;-56
2023/01/28 05:51:11;;;;;;;2.10;1.40;;;;;;;;;;21000312;28;20084;-55
2023/01/28 06:01:13;;;;;;;4.68;1.92;;;;;;;;;;21010750;28;20048;-56
2023/01/28 06:11:16;;;;;;;2.55;1.10;;;;;;;;;;21009238;28;20057;-55
2023/01/28 06:21:19;;;;;;;3.65;1.42;;;;;;;;;;21008674;28;20404;-54
2023/01/28 06:31:22;;;;;;;4.95;1.55;;;;;;;;;;21010086;28;20132;-56
2023/01/28 06:41:24;;;;;;;5.28;2.85;;;;;;;;;;21007625;28;20480;-56
2023/01/28 06:51:27;;;;;;;5.95;2.97;;;;;;;;;;21005608;28;20143;-55
2023/01/28 07:01:29;;;;;;;8.23;3.88;;;;;;;;;;21007028;28;20553;-57
2023/01/28 07:11:33;;;;;;;3.65;2.10;;;;;;;;;;21006559;28;20052;-59
2023/01/28 07:21:35;;;;;;;4.90;1.95;;;;;;;;;;21005295;28;20048;-56
2023/01/28 07:31:38;;;;;;;4.38;2.35;;;;;;;;;;21004075;28;20098;-56
2023/01/28 07:41:42;;;;;;;7.38;3.50;;;;;;;;;;21003920;28;20048;-56
2023/01/28 07:51:45;;;;;;;11.57;5.68;;;;;;;;;;21000913;28;20056;-58
2023/01/28 08:01:48;;;;;;;11.82;6.22;;;;;;;;;;21001630;28;20560;-57
2023/01/28 08:11:50;;;;;;;18.83;7.03;;;;;;;;;;20998954;28;20090;-57
2023/01/28 08:21:53;;;;;;;8.82;5.18;;;;;;;;;;20999462;28;20076;-57
2023/01/28 08:31:56;;;;;;;8.80;4.25;;;;;;;;;;20999369;28;20048;-55
2023/01/28 08:41:58;;;;;;;16.77;5.57;;;;;;;;;;20999639;28;20055;-57
2023/01/28 08:52:00;;;;;;;17.27;9.98;;;;;;;;;;20996209;28;20067;-56
2023/01/28 09:02:02;;;;;;;8.25;4.38;;;;;;;;;;20996100;28;20052;-55
2023/01/28 09:12:04;;;;;;;5.80;2.83;;;;;;;;;;20996824;28;20044;-56
2023/01/28 09:22:07;;;;;;;3.25;1.83;;;;;;;;;;20995211;28;20114;-57
2023/01/28 09:32:09;;;;;;;3.55;2.13;;;;;;;;;;21011170;28;20049;-56
2023/01/28 09:42:37;;;;;;;6.63;3.65;;;;;;;;;;21011990;28;20480;-55
2023/01/28 09:52:40;;;;;;;4.95;3.25;;;;;;;;;;20995131;28;20136;-56
2023/01/28 10:02:48;;;;;;;6.45;2.97;;;;;;;;;;21009199;28;20076;-57
2023/01/28 10:12:52;;;;;;;4.45;2.78;;;;;;;;;;21007917;28;20048;-55
2023/01/28 10:23:00;;;;;;;4.53;2.50;;;;;;;;;;21008954;28;20044;-59
2023/01/28 10:33:11;;;;;;;6.80;2.75;;;;;;;;;;21008030;28;20133;-57
2023/01/28 10:43:17;;;;;;;5.18;2.95;;;;;;;;;;21005030;28;20044;-56
2023/01/28 10:53:20;;;;;;;4.88;3.03;;;;;;;;;;21005289;28;20060;-58
2023/01/28 11:03:29;;;;;;;5.60;2.90;;;;;;;;;;21005045;28;20103;-60
2023/01/28 11:13:31;;;;;;;10.15;3.45;;;;;;;;;;21004564;28;20484;-62
2023/01/28 11:23:41;;;;;;;7.60;2.85;;;;;;;;;;21004211;28;20146;-56
2023/01/28 11:33:44;;;;;;;6.13;2.78;;;;;;;;;;21001910;28;20041;-59
2023/01/28 11:43:46;;;;;;;1.75;1.00;;;;;;;;;;21002048;28;20044;-56
2023/01/28 11:53:54;;;;;;;0.90;0.60;;;;;;;;;;21000466;28;20052;-56
2023/01/28 12:04:15;;;;;;;0.82;0.52;;;;;;;;;;21000510;28;20062;-56
2023/01/28 12:14:32;;;;;;;1.00;0.60;;;;;;;;;;20998574;28;20052;-58
2023/01/28 12:24:42;;;;;;;2.15;0.82;;;;;;;;;;21000365;28;20049;-62
2023/01/28 12:34:49;;;;;;;1.60;0.77;;;;;;;;;;21003764;28;20052;-61
2023/01/28 12:44:53;;;;;;;0.90;0.60;;;;;;;;;;20997844;28;20110;-57
2023/01/28 12:55:00;;;;;;;2.53;1.10;;;;;;;;;;20998601;28;20048;-56
2023/01/28 13:05:08;;;;;;;0.93;0.70;;;;;;;;;;20997307;28;20053;-56
2023/01/28 13:15:16;;;;;;;3.00;1.35;;;;;;;;;;20997203;28;20094;-55
2023/01/28 13:25:20;;;;;;;3.63;0.98;;;;;;;;;;20995090;28;20071;-56
2023/01/28 13:35:29;;;;;;;5.22;1.30;;;;;;;;;;20994877;28;20468;-58
2023/01/28 13:45:32;;;;;;;1.85;0.90;;;;;;;;;;20995137;28;20080;-57
2023/01/28 13:55:38;;;;;;;2.00;0.82;;;;;;;;;;20976148;28;20119;-56
2023/01/28 14:05:54;;;;;;;2.13;1.10;;;;;;;;;;20995801;28;20044;-57
2023/01/28 14:16:03;;;;;;;1.30;0.80;;;;;;;;;;21006945;28;20261;-57
2023/01/28 14:26:10;;;;;;;2.80;0.70;;;;;;;;;;21009881;28;20079;-56
2023/01/28 14:36:12;;;;;;;1.50;0.80;;;;;;;;;;21007938;28;20045;-56
2023/01/28 14:46:19;;;;;;;1.73;0.90;;;;;;;;;;21006342;28;20084;-56
2023/01/28 14:56:33;;;;;;;1.92;0.82;;;;;;;;;;21005726;28;20103;-59
2023/01/28 15:06:35;;;;;;;1.63;0.63;;;;;;;;;;21005867;28;20055;-63
2023/01/28 15:16:38;;;;;;;1.30;0.60;;;;;;;;;;21005309;28;20102;-61
2023/01/28 15:26:44;;;;;;;2.15;0.60;;;;;;;;;;21002201;28;20044;-57
2023/01/28 15:36:48;;;;;;;1.92;0.82;;;;;;;;;;21002107;28;20048;-57
2023/01/28 15:46:50;;;;;;;1.73;0.65;;;;;;;;;;21000801;28;20055;-59
2023/01/28 15:56:52;;;;;;;2.15;0.80;;;;;;;;;;21000998;28;20127;-58
2023/01/28 16:06:56;;;;;;;5.93;3.70;;;;;;;;;;21000016;28;20050;-62
2023/01/28 16:17:00;;;;;;;1.17;0.73;;;;;;;;;;21000488;28;20052;-57
2023/01/28 16:27:04;;;;;;;1.27;0.70;;;;;;;;;;20998961;28;20044;-59
2023/01/28 16:37:08;;;;;;;1.67;0.85;;;;;;;;;;20997165;28;20056;-60
2023/01/28 16:47:10;;;;;;;1.20;0.60;;;;;;;;;;20994942;28;20092;-57
2023/01/28 16:57:16;;;;;;;2.03;1.10;;;;;;;;;;20995281;28;20127;-59
2023/01/28 17:07:18;;;;;;;2.22;1.00;;;;;;;;;;20996022;28;20052;-56
2023/01/28 17:17:20;;;;;;;1.90;1.00;;;;;;;;;;20996335;28;20508;-62
2023/01/28 17:27:22;;;;;;;1.75;0.93;;;;;;;;;;20995362;28;20128;-58
2023/01/28 17:37:24;;;;;;;3.17;1.20;;;;;;;;;;20995536;28;20059;-58
2023/01/28 17:47:26;;;;;;;1.52;0.82;;;;;;;;;;21000655;28;20502;-60
2023/01/28 17:57:28;;;;;;;3.00;1.10;;;;;;;;;;21009496;28;20106;-60
2023/01/28 18:07:30;;;;;;;3.58;2.00;;;;;;;;;;21010243;28;20044;-56
2023/01/28 18:17:32;;;;;;;3.83;1.70;;;;;;;;;;21009675;28;20044;-58
2023/01/28 18:27:36;;;;;;;2.10;1.30;;;;;;;;;;21009309;28;20053;-58
2023/01/28 18:37:39;;;;;;;3.55;1.45;;;;;;;;;;21013975;28;20094;-58
2023/01/28 18:47:41;;;;;;;3.33;1.40;;;;;;;;;;21013397;28;20094;-56
2023/01/28 18:57:43;;;;;;;2.90;1.23;;;;;;;;;;21005629;28;20408;-61
2023/01/28 19:07:46;;;;;;;2.95;1.40;;;;;;;;;;20988724;28;20427;-56
2023/01/28 19:17:48;;;;;;;3.28;1.63;;;;;;;;;;21005121;28;20453;-59
2023/01/28 19:27:53;;;;;;;2.47;1.30;;;;;;;;;;21004273;28;20055;-57
2023/01/28 19:37:55;;;;;;;1.80;1.33;;;;;;;;;;21003246;28;20560;-62
2023/01/28 19:47:57;;;;;;;2.08;1.00;;;;;;;;;;21001100;28;20052;-61
2023/01/28 19:57:59;;;;;;;3.10;1.40;;;;;;;;;;21002034;28;20056;-62
2023/01/28 20:08:01;;;;;;;2.50;1.92;;;;;;;;;;20999428;28;20136;-58
2023/01/28 20:18:02;;;;;;;3.20;1.67;;;;;;;;;;21000270;28;20094;-59
2023/01/28 20:28:03;;;;;;;2.10;1.40;;;;;;;;;;20999402;28;20087;-58
2023/01/28 20:38:05;;;;;;;4.80;2.83;;;;;;;;;;20998725;28;20131;-59
2023/01/28 20:48:06;;;;;;;5.10;2.25;;;;;;;;;;20996881;28;20496;-56
2023/01/28 20:58:07;;;;;;;6.85;4.47;;;;;;;;;;20998107;28;20044;-59
2023/01/28 21:08:08;;;;;;;3.45;1.80;;;;;;;;;;20996147;28;20472;-58
2023/01/28 21:18:10;;;;;;;4.45;1.80;;;;;;;;;;20996976;28;20040;-56
2023/01/28 21:28:11;;;;;;;2.55;1.30;;;;;;;;;;21013392;28;20123;-56
2023/01/28 21:38:12;;;;;;;2.97;1.35;;;;;;;;;;21012367;28;20577;-56
2023/01/28 21:48:13;;;;;;;2.85;2.33;;;;;;;;;;21015514;28;20064;-61
2023/01/28 22:08:34;;;;;;;2.35;1.50;;;;;;;;;;21013601;28;20052;-57
2023/01/28 22:18:36;;;;;;;4.80;2.17;;;;;;;;;;21010853;28;20052;-62
2023/01/28 22:28:39;;;;;;;5.93;1.70;;;;;;;;;;21010544;28;20044;-59
2023/01/28 22:38:42;;;;;;;2.40;1.48;;;;;;;;;;21010387;28;20051;-59
2023/01/28 22:48:46;;;;;;;2.70;1.70;;;;;;;;;;21008176;28;20052;-58
2023/01/28 22:58:53;;;;;;;2.28;1.40;;;;;;;;;;21007366;28;20102;-57
2023/01/28 23:08:55;;;;;;;;;;;;;;;;;;21007870;28;20491;-58
2023/01/28 23:29:21;;;;;;;6.32;2.85;;;;;;;;;;21006302;28;20048;-64
2023/01/28 23:39:24;;;;;;;4.15;1.77;;;;;;;;;;21006197;28;20127;-61
2023/01/28 23:49:45;;;;;;;2.75;1.80;;;;;;;;;;21002700;28;20407;-56
